createdAt,value
2022-09-02T00:02:16.894Z,27.50
2022-09-02T00:04:46.982Z,27.50
2022-09-02T00:07:15.350Z,27.50
2022-09-02T00:09:43.571Z,27.60
2022-09-02T00:12:13.829Z,27.60
2022-09-02T00:14:42.265Z,27.60
2022-09-02T00:17:11.735Z,27.70
2022-09-02T00:19:40.585Z,27.80
2022-09-02T00:22:09.972Z,27.80
2022-09-02T00:24:38.243Z,27.80
2022-09-02T00:27:07.784Z,27.90
2022-09-02T00:29:37.217Z,27.90
2022-09-02T00:32:05.536Z,28.00
2022-09-02T00:34:34.380Z,28.00
2022-09-02T00:37:02.676Z,28.10
2022-09-02T00:39:32.049Z,28.10
2022-09-02T00:42:07.199Z,28.20
2022-09-02T00:44:36.102Z,28.30
2022-09-02T00:47:04.841Z,28.40
2022-09-02T00:49:35.401Z,28.50
2022-09-02T00:52:15.966Z,28.50
2022-09-02T00:54:48.183Z,28.60
2022-09-02T00:57:20.421Z,28.70
2022-09-02T01:00:00.920Z,28.80
2022-09-02T01:02:32.074Z,28.90
2022-09-02T01:05:01.245Z,29.00
2022-09-02T01:07:30.798Z,29.10
2022-09-02T01:10:02.075Z,29.20
2022-09-02T01:12:31.942Z,29.30
2022-09-02T01:15:00.687Z,29.40
2022-09-02T01:17:29.229Z,29.50
2022-09-02T01:20:01.685Z,29.50
2022-09-02T01:22:34.651Z,29.60
2022-09-02T01:25:07.531Z,29.70
2022-09-02T01:27:36.026Z,29.80
2022-09-02T01:30:05.995Z,29.90
2022-09-02T01:32:35.262Z,29.90
2022-09-02T01:35:06.112Z,30.00
2022-09-02T01:37:39.706Z,30.10
2022-09-02T01:40:09.868Z,30.20
2022-09-02T01:42:39.069Z,30.30
2022-09-02T01:45:10.516Z,30.40
2022-09-02T01:47:39.870Z,30.40
2022-09-02T01:50:09.090Z,30.40
2022-09-02T01:52:37.327Z,30.40
2022-09-02T01:55:06.360Z,30.50
2022-09-02T01:57:34.211Z,30.50
2022-09-02T02:00:02.528Z,30.50
2022-09-02T02:02:34.481Z,30.60
2022-09-02T02:05:03.244Z,30.60
2022-09-02T02:07:32.398Z,30.60
2022-09-02T02:10:02.153Z,30.60
2022-09-02T02:12:37.568Z,30.60
2022-09-02T02:15:19.209Z,30.60
2022-09-02T02:17:49.034Z,30.60
2022-09-02T02:20:20.052Z,30.60
2022-09-02T02:22:56.469Z,30.60
2022-09-02T02:25:38.134Z,30.60
2022-09-02T02:28:17.466Z,30.60
2022-09-02T02:30:45.743Z,30.60
2022-09-02T02:33:16.424Z,30.60
2022-09-02T02:35:51.020Z,30.60
2022-09-02T02:38:27.172Z,30.70
2022-09-02T02:41:12.136Z,30.70
2022-09-02T02:43:41.506Z,30.70
2022-09-02T02:46:14.761Z,30.70
2022-09-02T02:48:47.634Z,30.70
2022-09-02T02:51:18.538Z,30.70
2022-09-02T02:53:50.800Z,30.70
2022-09-02T02:56:20.317Z,30.80
2022-09-02T02:58:49.360Z,30.90
2022-09-02T03:01:22.181Z,31.00
2022-09-02T03:03:53.225Z,31.00
2022-09-02T03:06:23.873Z,31.10
2022-09-02T03:08:56.312Z,31.20
2022-09-02T03:11:29.759Z,31.20
2022-09-02T03:14:03.605Z,31.20
2022-09-02T03:16:33.667Z,31.20
2022-09-02T03:19:02.716Z,31.10
2022-09-02T03:21:39.085Z,31.20
2022-09-02T03:24:09.235Z,31.30
2022-09-02T03:26:41.553Z,31.30
2022-09-02T03:29:14.619Z,31.40
2022-09-02T03:31:44.757Z,31.50
2022-09-02T03:34:15.644Z,31.50
2022-09-02T03:36:47.694Z,31.70
2022-09-02T03:39:17.012Z,31.80
2022-09-02T03:41:51.843Z,31.90
2022-09-02T03:44:20.648Z,31.90
2022-09-02T03:46:56.594Z,31.90
2022-09-02T03:49:27.940Z,31.90
2022-09-02T03:51:58.405Z,32.00
2022-09-02T03:54:28.136Z,32.10
2022-09-02T03:56:57.475Z,32.20
2022-09-02T03:59:25.635Z,32.30
2022-09-02T04:01:55.221Z,32.40
2022-09-02T04:04:24.055Z,32.30
2022-09-02T04:06:52.827Z,32.40
2022-09-02T04:09:23.904Z,32.50
2022-09-02T04:11:53.253Z,32.50
2022-09-02T04:14:25.366Z,32.50
2022-09-02T04:16:56.899Z,32.50
2022-09-02T04:19:25.903Z,32.60
2022-09-02T04:21:54.900Z,32.60
2022-09-02T04:24:23.530Z,32.70
2022-09-02T04:27:04.071Z,32.70
2022-09-02T04:29:35.816Z,32.80
2022-09-02T04:32:04.449Z,32.90
2022-09-02T04:34:33.472Z,33.00
2022-09-02T04:37:01.526Z,33.10
2022-09-02T04:39:32.439Z,33.10
2022-09-02T04:42:00.508Z,33.10
2022-09-02T04:44:28.316Z,33.00
2022-09-02T04:46:56.729Z,33.00
2022-09-02T04:49:24.816Z,33.00
2022-09-02T04:51:54.547Z,33.00
2022-09-02T04:54:22.447Z,33.00
2022-09-02T04:56:50.724Z,33.00
2022-09-02T04:59:18.763Z,32.90
2022-09-02T05:01:47.610Z,33.00
2022-09-02T05:04:15.897Z,33.00
2022-09-02T05:06:44.888Z,33.00
2022-09-02T05:09:13.084Z,33.00
2022-09-02T05:11:41.127Z,33.00
2022-09-02T05:14:13.489Z,33.00
2022-09-02T05:16:41.669Z,33.10
2022-09-02T05:19:12.209Z,33.20
2022-09-02T05:21:45.262Z,33.20
2022-09-02T05:24:13.460Z,33.20
2022-09-02T05:26:42.839Z,33.30
2022-09-02T05:29:11.898Z,33.30
2022-09-02T05:31:42.173Z,33.30
2022-09-02T05:34:10.260Z,33.30
2022-09-02T05:36:38.614Z,33.30
2022-09-02T05:39:07.733Z,33.50
2022-09-02T05:41:36.297Z,33.60
2022-09-02T05:44:04.883Z,33.60
2022-09-02T05:46:34.029Z,33.60
2022-09-02T05:49:10.012Z,33.70
2022-09-02T05:51:46.446Z,33.70
2022-09-02T05:54:15.677Z,33.70
2022-09-02T05:56:45.399Z,33.70
2022-09-02T05:59:13.971Z,33.70
2022-09-02T06:01:43.336Z,33.70
2022-09-02T06:04:11.133Z,33.70
2022-09-02T06:06:44.035Z,33.70
2022-09-02T06:09:17.387Z,33.70
2022-09-02T06:11:46.115Z,33.70
2022-09-02T06:16:59.814Z,33.70
2022-09-02T06:19:33.057Z,33.80
2022-09-02T06:22:03.001Z,33.80
2022-09-02T06:24:35.987Z,33.80
2022-09-02T06:27:04.761Z,33.80
2022-09-02T06:29:32.600Z,33.80
2022-09-02T06:32:01.232Z,33.80
2022-09-02T06:34:28.913Z,33.90
2022-09-02T06:36:58.204Z,34.00
2022-09-02T06:39:26.353Z,34.00
2022-09-02T06:41:54.176Z,34.00
2022-09-02T06:44:25.102Z,33.80
2022-09-02T06:46:57.387Z,33.80
2022-09-02T06:49:27.070Z,33.80
2022-09-02T06:51:56.818Z,33.70
2022-09-02T06:54:26.303Z,33.60
2022-09-02T06:56:54.772Z,33.60
2022-09-02T06:59:23.156Z,33.70
2022-09-02T07:01:53.476Z,33.70
2022-09-02T07:04:34.585Z,33.80
2022-09-02T07:07:09.651Z,33.80
2022-09-02T07:09:37.953Z,33.70
2022-09-02T07:12:07.236Z,33.70
2022-09-02T07:14:41.309Z,33.70
2022-09-02T07:17:13.052Z,33.70
2022-09-02T07:19:45.994Z,33.80
2022-09-02T07:22:13.928Z,33.80
2022-09-02T07:24:48.085Z,33.80
2022-09-02T07:27:16.333Z,33.80
2022-09-02T07:29:45.673Z,33.80
2022-09-02T07:32:13.995Z,33.80
2022-09-02T07:34:51.339Z,33.80
2022-09-02T07:37:21.223Z,33.80
2022-09-02T07:39:52.401Z,33.80
2022-09-02T07:42:20.883Z,33.80
2022-09-02T07:44:48.741Z,33.80
2022-09-02T07:47:17.097Z,33.80
2022-09-02T07:52:33.362Z,33.80
2022-09-02T07:55:01.603Z,33.90
2022-09-02T07:57:29.837Z,34.00
2022-09-02T07:59:57.651Z,34.00
2022-09-02T08:02:29.238Z,33.90
2022-09-02T08:04:57.168Z,34.00
2022-09-02T08:07:27.852Z,34.00
2022-09-02T08:09:56.749Z,34.00
2022-09-02T08:12:25.562Z,34.10
2022-09-02T08:14:54.496Z,34.00
2022-09-02T08:17:22.291Z,33.80
2022-09-02T08:19:51.347Z,33.80
2022-09-02T08:22:19.663Z,33.70
2022-09-02T08:24:47.697Z,33.50
2022-09-02T08:27:16.897Z,33.40
2022-09-02T08:29:45.117Z,33.30
2022-09-02T08:32:14.717Z,33.30
2022-09-02T08:34:42.896Z,33.30
2022-09-02T08:37:12.008Z,33.40
2022-09-02T08:39:40.402Z,33.50
2022-09-02T08:42:20.378Z,33.50
2022-09-02T08:44:50.497Z,33.50
2022-09-02T08:47:22.151Z,33.60
2022-09-02T08:49:52.001Z,33.50
2022-09-02T08:52:32.407Z,33.50
2022-09-02T08:55:03.157Z,33.50
2022-09-02T08:57:35.047Z,33.40
2022-09-02T09:00:11.496Z,33.40
2022-09-02T09:02:58.789Z,33.40
2022-09-02T09:05:44.092Z,33.40
2022-09-02T09:08:31.954Z,33.40
2022-09-02T09:11:02.054Z,33.30
2022-09-02T09:13:55.240Z,33.30
2022-09-02T09:16:39.231Z,33.30
2022-09-02T09:19:13.387Z,33.30
2022-09-02T09:21:42.179Z,33.30
2022-09-02T09:24:27.449Z,33.40
2022-09-02T09:26:58.134Z,33.40
2022-09-02T09:29:26.369Z,33.40
2022-09-02T09:31:57.983Z,33.40
2022-09-02T09:34:25.874Z,33.40
2022-09-02T09:36:58.043Z,33.40
2022-09-02T09:39:32.830Z,33.40
2022-09-02T09:42:03.940Z,33.40
2022-09-02T09:44:39.649Z,33.40
2022-09-02T09:47:11.783Z,33.30
2022-09-02T09:49:46.488Z,33.30
2022-09-02T09:52:23.246Z,33.30
2022-09-02T09:55:03.254Z,33.30
2022-09-02T09:57:35.747Z,33.30
2022-09-02T10:00:18.340Z,33.20
2022-09-02T10:02:55.615Z,33.20
2022-09-02T10:05:33.033Z,33.20
2022-09-02T10:08:23.616Z,33.10
2022-09-02T10:11:02.356Z,33.10
2022-09-02T10:13:34.797Z,33.10
2022-09-02T10:16:15.955Z,33.10
2022-09-02T10:18:56.847Z,33.00
2022-09-02T10:21:40.894Z,33.00
2022-09-02T10:24:32.553Z,33.00
2022-09-02T10:27:01.106Z,33.00
2022-09-02T10:29:41.259Z,33.00
2022-09-02T10:32:21.171Z,32.90
2022-09-02T10:35:01.119Z,32.90
2022-09-02T10:37:49.135Z,32.80
2022-09-02T10:40:18.091Z,32.80
2022-09-02T10:42:58.699Z,32.80
2022-09-02T10:45:38.931Z,32.70
2022-09-02T10:48:13.924Z,32.70
2022-09-02T10:50:48.114Z,32.70
2022-09-02T10:53:37.271Z,32.60
2022-09-02T10:56:24.603Z,32.60
2022-09-02T10:59:03.530Z,32.60
2022-09-02T11:01:42.668Z,32.50
2022-09-02T11:04:32.067Z,32.40
2022-09-02T11:07:03.523Z,32.40
2022-09-02T11:09:39.332Z,32.30
2022-09-02T11:12:12.479Z,32.30
2022-09-02T11:14:48.958Z,32.30
2022-09-02T11:17:37.187Z,32.20
2022-09-02T11:20:18.127Z,32.20
2022-09-02T11:23:06.297Z,32.20
2022-09-02T11:25:46.409Z,32.10
2022-09-02T11:28:26.597Z,32.10
2022-09-02T11:30:59.114Z,32.10
2022-09-02T11:33:31.498Z,32.00
2022-09-02T11:36:00.146Z,32.00
2022-09-02T11:38:38.647Z,31.90
2022-09-02T11:41:38.949Z,31.90
2022-09-02T11:44:29.386Z,31.90
2022-09-02T11:47:11.228Z,31.80
2022-09-02T11:49:51.385Z,31.60
2022-09-02T11:52:40.638Z,31.30
2022-09-02T11:55:18.033Z,31.10
2022-09-02T11:57:53.626Z,30.80
2022-09-02T12:00:32.629Z,30.50
2022-09-02T12:03:11.892Z,30.10
2022-09-02T12:05:46.484Z,29.80
2022-09-02T12:08:36.161Z,29.50
2022-09-02T12:11:07.216Z,29.20
2022-09-02T12:13:41.316Z,29.00
2022-09-02T12:16:29.148Z,28.80
2022-09-02T12:19:16.906Z,28.70
2022-09-02T12:22:09.080Z,28.60
2022-09-02T12:24:50.082Z,28.50
2022-09-02T12:27:37.526Z,28.30
2022-09-02T12:30:07.682Z,28.20
2022-09-02T12:32:49.262Z,28.10
2022-09-02T12:35:36.650Z,28.00
2022-09-02T12:38:25.556Z,28.00
2022-09-02T12:41:01.349Z,28.00
2022-09-02T12:43:49.485Z,28.00
2022-09-02T12:46:29.575Z,27.90
2022-09-02T12:49:02.186Z,27.90
2022-09-02T12:51:42.996Z,28.00
2022-09-02T12:54:10.950Z,28.00
2022-09-02T12:56:40.029Z,27.90
2022-09-02T12:59:07.906Z,27.90
2022-09-02T13:01:55.293Z,27.90
2022-09-02T13:04:34.848Z,27.90
2022-09-02T13:07:22.188Z,27.90
2022-09-02T13:10:05.238Z,27.80
2022-09-02T13:12:51.356Z,27.80
2022-09-02T13:15:40.709Z,27.80
2022-09-02T13:18:25.866Z,27.80
2022-09-02T13:21:02.208Z,27.80
2022-09-02T13:23:46.421Z,27.90
2022-09-02T13:26:39.140Z,27.90
2022-09-02T13:29:22.738Z,27.90
2022-09-02T13:32:09.998Z,28.00
2022-09-02T13:34:45.176Z,28.00
2022-09-02T13:37:25.901Z,28.00
2022-09-02T13:39:54.511Z,28.00
2022-09-02T13:42:27.479Z,28.00
2022-09-02T13:45:12.974Z,28.00
2022-09-02T13:47:45.461Z,28.00
2022-09-02T13:50:15.608Z,28.00
2022-09-02T13:53:49.179Z,27.90
2022-09-02T13:55:32.069Z,27.90
2022-09-02T13:58:02.152Z,28.00
2022-09-02T14:00:32.840Z,28.00
2022-09-02T14:03:02.756Z,28.00
2022-09-02T14:05:31.868Z,28.00
2022-09-02T14:08:01.248Z,28.00
2022-09-02T14:10:29.613Z,27.90
2022-09-02T14:12:57.930Z,27.90
2022-09-02T14:15:27.361Z,27.90
2022-09-02T14:18:07.216Z,27.90
2022-09-02T14:20:35.520Z,27.80
2022-09-02T14:23:03.345Z,27.80
2022-09-02T14:25:34.646Z,27.80
2022-09-02T14:28:05.532Z,27.80
2022-09-02T14:30:40.428Z,27.80
2022-09-02T14:33:21.296Z,27.80
2022-09-02T14:36:01.100Z,27.80
2022-09-02T14:38:31.338Z,27.80
2022-09-02T14:41:03.724Z,27.80
2022-09-02T14:43:37.022Z,27.80
2022-09-02T14:46:06.393Z,27.80
2022-09-02T14:48:39.198Z,27.80
2022-09-02T14:51:08.661Z,27.80
2022-09-02T14:53:41.586Z,27.90
2022-09-02T14:56:09.261Z,27.90
2022-09-02T14:58:36.879Z,27.90
2022-09-02T15:01:05.271Z,27.90
2022-09-02T15:03:37.402Z,27.90
2022-09-02T15:06:05.165Z,27.90
2022-09-02T15:08:32.845Z,27.90
2022-09-02T15:11:01.776Z,27.90
2022-09-02T15:13:31.756Z,27.90
2022-09-02T15:16:00.760Z,27.90
2022-09-02T15:18:29.690Z,27.90
2022-09-02T15:20:58.001Z,27.90
2022-09-02T15:23:26.597Z,27.80
2022-09-02T15:25:56.285Z,27.80
2022-09-02T15:28:24.888Z,27.70
2022-09-02T15:31:02.733Z,27.70
2022-09-02T15:33:30.840Z,27.70
2022-09-02T15:36:11.098Z,27.70
2022-09-02T15:38:41.295Z,27.70
2022-09-02T15:41:13.327Z,27.70
2022-09-02T15:43:41.332Z,27.70
2022-09-02T15:46:23.281Z,27.80
2022-09-02T15:48:51.477Z,27.70
2022-09-02T15:51:20.533Z,27.70
2022-09-02T15:53:49.940Z,27.70
2022-09-02T15:56:21.968Z,27.70
2022-09-02T15:58:54.610Z,27.60
2022-09-02T16:01:25.241Z,27.60
2022-09-02T16:03:53.705Z,27.70
2022-09-02T16:06:21.475Z,27.70
2022-09-02T16:08:49.450Z,27.60
2022-09-02T16:11:17.655Z,27.60
2022-09-02T16:13:46.522Z,27.60
2022-09-02T16:16:15.056Z,27.70
2022-09-02T16:18:42.989Z,27.70
2022-09-02T16:21:11.823Z,27.70
2022-09-02T16:23:40.215Z,27.70
2022-09-02T16:26:21.223Z,27.70
2022-09-02T16:28:49.633Z,27.70
2022-09-02T16:31:18.793Z,27.70
2022-09-02T16:33:55.466Z,27.70
2022-09-02T16:36:23.743Z,27.70
2022-09-02T16:38:54.428Z,27.60
2022-09-02T16:41:27.915Z,27.60
2022-09-02T16:43:56.900Z,27.60
2022-09-02T16:46:26.103Z,27.60
2022-09-02T16:48:56.093Z,27.50
2022-09-02T16:51:24.739Z,27.50
2022-09-02T16:53:55.987Z,27.50
2022-09-02T16:56:24.553Z,27.50
2022-09-02T16:58:53.007Z,27.50
2022-09-02T17:01:21.480Z,27.40
2022-09-02T17:03:51.517Z,27.40
2022-09-02T17:06:19.660Z,27.40
2022-09-02T17:08:47.752Z,27.40
2022-09-02T17:11:26.194Z,27.30
2022-09-02T17:13:59.397Z,27.40
2022-09-02T17:16:28.668Z,27.40
2022-09-02T17:18:56.987Z,27.40
2022-09-02T17:21:35.204Z,27.30
2022-09-02T17:24:04.489Z,27.30
2022-09-02T17:26:34.912Z,27.40
2022-09-02T17:29:07.722Z,27.40
2022-09-02T17:31:35.778Z,27.40
2022-09-02T17:34:05.068Z,27.40
2022-09-02T17:36:33.855Z,27.40
2022-09-02T17:39:03.155Z,27.30
2022-09-02T17:41:43.137Z,27.30
2022-09-02T17:44:11.733Z,27.40
2022-09-02T17:46:39.545Z,27.30
2022-09-02T17:49:16.680Z,27.40
2022-09-02T17:51:46.767Z,27.40
2022-09-02T17:54:15.219Z,27.40
2022-09-02T17:57:02.597Z,27.40
2022-09-02T17:59:50.313Z,27.50
2022-09-02T18:02:33.633Z,27.40
2022-09-02T18:05:14.658Z,27.50
2022-09-02T18:08:02.193Z,27.50
2022-09-02T18:10:40.967Z,27.50
2022-09-02T18:13:15.868Z,27.50
2022-09-02T18:15:56.592Z,27.60
2022-09-02T18:18:28.166Z,27.60
2022-09-02T18:21:04.814Z,27.60
2022-09-02T18:23:47.563Z,27.60
2022-09-02T18:26:23.172Z,27.60
2022-09-02T18:29:10.516Z,27.60
2022-09-02T18:31:50.453Z,27.60
2022-09-02T18:34:31.554Z,27.60
2022-09-02T18:37:13.578Z,27.60
2022-09-02T18:40:00.605Z,27.60
2022-09-02T18:42:42.637Z,27.60
2022-09-02T18:45:22.740Z,27.60
2022-09-02T18:47:54.468Z,27.60
2022-09-02T18:50:48.971Z,27.50
2022-09-02T18:53:15.135Z,27.50
2022-09-02T18:55:44.316Z,27.40
2022-09-02T18:58:34.534Z,27.40
2022-09-02T19:01:07.461Z,27.40
2022-09-02T19:03:36.045Z,27.40
2022-09-02T19:06:06.398Z,27.30
2022-09-02T19:08:34.721Z,27.30
2022-09-02T19:11:03.966Z,27.30
2022-09-02T19:13:37.882Z,27.30
2022-09-02T19:16:05.841Z,27.30
2022-09-02T19:18:33.650Z,27.40
2022-09-02T19:21:01.692Z,27.40
2022-09-02T19:23:29.984Z,27.40
2022-09-02T19:26:00.429Z,27.40
2022-09-02T19:28:28.503Z,27.40
2022-09-02T19:30:59.364Z,27.40
2022-09-02T19:33:29.465Z,27.40
2022-09-02T19:35:59.521Z,27.30
2022-09-02T19:38:27.672Z,27.30
2022-09-02T19:40:55.666Z,27.30
2022-09-02T19:43:23.430Z,27.20
2022-09-02T19:45:51.654Z,27.20
2022-09-02T19:48:19.924Z,27.20
2022-09-02T19:50:49.798Z,27.20
2022-09-02T19:53:22.761Z,27.20
2022-09-02T19:55:51.477Z,27.20
2022-09-02T19:58:19.583Z,27.10
2022-09-02T20:00:48.919Z,27.10
2022-09-02T20:03:16.987Z,27.10
2022-09-02T20:05:44.672Z,27.10
2022-09-02T20:08:13.274Z,27.10
2022-09-02T20:10:41.926Z,27.00
2022-09-02T20:13:14.393Z,27.00
2022-09-02T20:15:42.143Z,27.00
2022-09-02T20:18:11.182Z,26.90
2022-09-02T20:20:43.271Z,26.90
2022-09-02T20:23:13.923Z,26.90
2022-09-02T20:26:04.246Z,26.90
2022-09-02T20:28:51.599Z,26.90
2022-09-02T20:31:28.395Z,26.90
2022-09-02T20:34:03.848Z,26.90
2022-09-02T20:36:42.553Z,27.00
2022-09-02T20:39:30.814Z,27.00
2022-09-02T20:42:18.054Z,27.00
2022-09-02T20:45:05.958Z,27.00
2022-09-02T20:47:42.073Z,27.00
2022-09-02T20:50:30.229Z,27.00
2022-09-02T20:53:03.587Z,27.00
2022-09-02T20:55:35.884Z,27.00
2022-09-02T20:58:23.276Z,27.00
2022-09-02T21:01:11.265Z,27.00
2022-09-02T21:03:58.632Z,27.10
2022-09-02T21:06:29.059Z,27.10
2022-09-02T21:09:00.170Z,27.10
2022-09-02T21:11:33.142Z,27.10
2022-09-02T21:14:15.435Z,27.10
2022-09-02T21:16:45.376Z,27.10
2022-09-02T21:19:32.739Z,27.10
2022-09-02T21:22:03.363Z,27.10
2022-09-02T21:24:50.654Z,27.10
2022-09-02T21:27:23.488Z,27.00
2022-09-02T21:30:11.388Z,27.00
2022-09-02T21:32:47.088Z,27.10
2022-09-02T21:35:17.954Z,27.10
2022-09-02T21:37:46.423Z,27.10
2022-09-02T21:40:17.026Z,27.10
2022-09-02T21:43:02.315Z,27.00
2022-09-02T21:45:37.947Z,27.00
2022-09-02T21:48:17.865Z,26.90
2022-09-02T21:50:51.385Z,26.90
2022-09-02T21:53:38.713Z,26.90
2022-09-02T21:56:26.082Z,27.00
2022-09-02T21:59:15.578Z,27.00
2022-09-02T22:01:50.355Z,27.10
2022-09-02T22:04:25.551Z,27.00
2022-09-02T22:06:58.275Z,27.00
2022-09-02T22:09:28.582Z,27.00
2022-09-02T22:12:09.113Z,27.00
2022-09-02T22:14:45.424Z,26.90
2022-09-02T22:17:30.814Z,26.90
2022-09-02T22:20:02.672Z,26.80
2022-09-02T22:22:34.166Z,26.80
2022-09-02T22:25:02.133Z,26.90
2022-09-02T22:27:35.579Z,26.80
2022-09-02T22:30:18.929Z,26.90
2022-09-02T22:32:50.971Z,26.90
2022-09-02T22:35:31.793Z,26.90
2022-09-02T22:38:10.002Z,26.90
2022-09-02T22:40:44.517Z,26.90
2022-09-02T22:43:14.426Z,26.80
2022-09-02T22:45:59.727Z,26.80
2022-09-02T22:48:43.352Z,26.80
2022-09-02T22:51:27.200Z,26.90
2022-09-02T22:53:54.900Z,26.90
2022-09-02T22:56:28.537Z,27.00
2022-09-02T22:59:17.305Z,27.00
2022-09-02T23:01:52.051Z,27.10
2022-09-02T23:04:40.476Z,27.10
2022-09-02T23:07:09.957Z,27.10
2022-09-02T23:09:38.175Z,27.10
2022-09-02T23:12:18.113Z,27.10
2022-09-02T23:15:00.220Z,27.10
2022-09-02T23:17:35.133Z,27.10
2022-09-02T23:20:22.464Z,27.10
2022-09-02T23:22:58.232Z,27.20
2022-09-02T23:25:41.811Z,27.10
2022-09-02T23:28:17.231Z,27.20
2022-09-02T23:31:04.549Z,27.10
2022-09-02T23:33:49.600Z,27.10
2022-09-02T23:36:27.277Z,27.10
2022-09-02T23:39:04.128Z,27.10
2022-09-02T23:41:32.698Z,27.10
2022-09-02T23:44:01.151Z,27.10
2022-09-02T23:46:48.568Z,27.10
2022-09-02T23:49:25.777Z,27.10
2022-09-02T23:52:13.095Z,27.10
2022-09-02T23:55:01.233Z,27.10
2022-09-02T23:57:35.134Z,27.10
